createdAt,value
2023-04-25T00:00:55.509Z,96.50
2023-04-25T00:03:22.675Z,96.50
2023-04-25T00:05:50.107Z,96.70
2023-04-25T00:08:17.256Z,96.90
2023-04-25T00:10:44.221Z,96.80
2023-04-25T00:13:12.469Z,97.00
2023-04-25T00:15:39.861Z,97.20
2023-04-25T00:18:09.902Z,97.30
2023-04-25T00:20:37.051Z,97.40
2023-04-25T00:23:04.025Z,97.50
2023-04-25T00:25:31.069Z,97.80
2023-04-25T00:27:58.153Z,98.00
2023-04-25T00:30:25.100Z,98.10
2023-04-25T00:32:52.122Z,98.40
2023-04-25T00:35:19.176Z,98.60
2023-04-25T00:37:46.428Z,99.10
2023-04-25T00:40:13.492Z,99.40
2023-04-25T00:42:41.598Z,99.90
2023-04-25T00:45:13.545Z,99.60
2023-04-25T00:47:41.529Z,99.80
2023-04-25T00:50:09.790Z,99.90
2023-04-25T00:52:39.500Z,99.90
2023-04-25T00:55:06.742Z,99.90
2023-04-25T00:57:33.942Z,99.90
2023-04-25T01:00:01.076Z,99.90
2023-04-25T01:02:29.824Z,99.90
2023-04-25T01:04:57.179Z,99.90
2023-04-25T01:07:24.177Z,99.90
2023-04-25T01:09:53.293Z,99.90
2023-04-25T01:12:20.947Z,99.90
2023-04-25T01:14:48.040Z,99.90
2023-04-25T01:17:15.983Z,99.90
2023-04-25T01:19:43.361Z,99.90
2023-04-25T01:22:11.553Z,99.90
2023-04-25T01:24:38.740Z,99.90
2023-04-25T01:27:05.882Z,99.90
2023-04-25T01:29:36.717Z,99.90
2023-04-25T01:32:04.972Z,99.90
2023-04-25T01:34:31.925Z,99.90
2023-04-25T01:37:02.295Z,99.90
2023-04-25T01:39:29.982Z,99.90
2023-04-25T01:41:57.720Z,99.90
2023-04-25T01:44:25.069Z,99.90
2023-04-25T01:46:52.298Z,99.90
2023-04-25T01:49:19.265Z,99.90
2023-04-25T01:51:46.425Z,99.90
2023-04-25T01:54:14.115Z,99.90
2023-04-25T01:56:41.285Z,99.90
2023-04-25T01:59:12.776Z,99.90
2023-04-25T02:02:05.966Z,99.90
2023-04-25T02:04:34.582Z,99.90
2023-04-25T02:07:03.174Z,99.90
2023-04-25T02:09:39.626Z,99.90
2023-04-25T02:12:10.747Z,99.90
2023-04-25T02:14:56.243Z,99.90
2023-04-25T02:17:38.727Z,99.90
2023-04-25T02:20:06.625Z,99.90
2023-04-25T02:22:35.003Z,99.90
2023-04-25T02:25:02.159Z,99.90
2023-04-25T02:27:29.169Z,99.90
2023-04-25T02:29:57.404Z,99.90
2023-04-25T02:32:24.431Z,99.90
2023-04-25T02:34:51.370Z,99.90
2023-04-25T02:37:18.342Z,99.90
2023-04-25T02:39:46.122Z,99.90
2023-04-25T02:42:13.138Z,99.90
2023-04-25T02:44:40.096Z,99.90
2023-04-25T02:47:07.194Z,99.90
2023-04-25T02:49:34.186Z,99.90
2023-04-25T02:52:01.235Z,99.90
2023-04-25T02:54:28.191Z,99.90
2023-04-25T02:56:55.994Z,99.90
2023-04-25T02:59:27.483Z,99.90
2023-04-25T03:01:54.574Z,99.90
2023-04-25T03:04:21.994Z,99.90
2023-04-25T03:06:49.161Z,99.90
2023-04-25T03:09:16.249Z,99.90
2023-04-25T03:11:44.971Z,99.90
2023-04-25T03:14:13.273Z,99.90
2023-04-25T03:16:40.571Z,99.90
2023-04-25T03:19:07.672Z,99.90
2023-04-25T03:21:36.728Z,99.90
2023-04-25T03:24:05.780Z,99.90
2023-04-25T03:26:32.812Z,99.90
2023-04-25T03:29:00.579Z,99.90
2023-04-25T03:31:28.289Z,99.90
2023-04-25T03:33:55.388Z,99.90
2023-04-25T03:36:23.932Z,99.90
2023-04-25T03:38:51.077Z,99.90
2023-04-25T03:41:19.111Z,99.90
2023-04-25T03:43:50.159Z,99.90
2023-04-25T03:46:17.871Z,99.90
2023-04-25T03:48:46.758Z,99.50
2023-04-25T03:51:20.580Z,99.10
2023-04-25T03:53:49.268Z,98.50
2023-04-25T03:56:31.771Z,98.20
2023-04-25T03:59:10.127Z,98.00
2023-04-25T04:01:37.139Z,97.80
2023-04-25T04:04:04.755Z,97.20
2023-04-25T04:06:33.028Z,96.80
2023-04-25T04:09:10.924Z,96.10
2023-04-25T04:11:40.411Z,95.50
2023-04-25T04:14:08.249Z,94.80
2023-04-25T04:16:36.393Z,94.40
2023-04-25T04:19:04.069Z,94.00
2023-04-25T04:21:32.933Z,93.60
2023-04-25T04:24:01.109Z,93.20
2023-04-25T04:26:32.956Z,92.60
2023-04-25T04:29:23.585Z,91.90
2023-04-25T04:32:02.092Z,91.20
2023-04-25T04:34:30.405Z,90.70
2023-04-25T04:36:57.992Z,90.40
2023-04-25T04:39:26.183Z,89.90
2023-04-25T04:42:12.490Z,89.80
2023-04-25T04:44:59.728Z,89.70
2023-04-25T04:47:47.208Z,89.80
2023-04-25T04:50:33.607Z,89.70
2023-04-25T04:53:20.364Z,89.30
2023-04-25T04:56:10.523Z,89.40
2023-04-25T04:59:09.749Z,90.10
2023-04-25T05:01:59.607Z,90.50
2023-04-25T05:04:46.823Z,90.70
2023-04-25T05:07:32.380Z,90.80
2023-04-25T05:10:25.546Z,90.90
2023-04-25T05:13:11.428Z,91.40
2023-04-25T05:15:58.194Z,92.30
2023-04-25T05:18:43.732Z,93.30
2023-04-25T05:21:29.270Z,94.50
2023-04-25T05:24:08.022Z,95.50
2023-04-25T05:26:54.130Z,96.30
2023-04-25T05:29:44.182Z,97.10
2023-04-25T05:32:27.746Z,97.70
2023-04-25T05:34:55.498Z,98.30
2023-04-25T05:37:28.920Z,98.60
2023-04-25T05:39:59.850Z,98.90
2023-04-25T05:42:36.052Z,99.40
2023-04-25T05:45:22.245Z,99.80
2023-04-25T05:47:54.796Z,99.90
2023-04-25T05:50:29.108Z,99.90
2023-04-25T05:53:01.228Z,99.90
2023-04-25T05:55:35.924Z,99.90
2023-04-25T05:58:16.685Z,99.90
2023-04-25T06:00:43.725Z,99.90
2023-04-25T06:03:10.994Z,99.90
2023-04-25T06:05:38.234Z,99.90
2023-04-25T06:08:05.472Z,99.90
2023-04-25T06:10:32.529Z,99.90
2023-04-25T06:12:59.547Z,99.90
2023-04-25T06:15:28.870Z,99.90
2023-04-25T06:17:57.026Z,99.90
2023-04-25T06:20:25.506Z,99.90
2023-04-25T06:22:54.446Z,99.90
2023-04-25T06:25:27.410Z,99.90
2023-04-25T06:27:55.538Z,99.90
2023-04-25T06:30:26.774Z,99.90
2023-04-25T06:32:58.925Z,99.90
2023-04-25T06:35:29.096Z,99.90
2023-04-25T06:37:56.207Z,99.90
2023-04-25T06:40:24.686Z,99.90
2023-04-25T06:42:52.050Z,99.90
2023-04-25T06:45:57.559Z,99.90
2023-04-25T06:48:28.582Z,99.90
2023-04-25T06:50:55.646Z,99.90
2023-04-25T06:53:23.909Z,99.90
2023-04-25T06:55:56.756Z,99.90
2023-04-25T06:58:24.851Z,99.90
2023-04-25T07:00:59.289Z,99.90
2023-04-25T07:03:27.295Z,99.90
2023-04-25T07:05:59.560Z,99.90
2023-04-25T07:08:26.552Z,99.90
2023-04-25T07:10:53.633Z,99.90
2023-04-25T07:13:21.020Z,99.90
2023-04-25T07:15:49.211Z,99.90
2023-04-25T07:18:18.015Z,99.90
2023-04-25T07:20:45.349Z,99.90
2023-04-25T07:23:13.487Z,99.90
2023-04-25T07:25:40.634Z,93.70
2023-04-25T07:28:08.477Z,90.70
2023-04-25T07:30:36.849Z,85.70
2023-04-25T07:33:04.890Z,79.20
2023-04-25T07:35:32.315Z,76.20
2023-04-25T07:38:00.209Z,75.00
2023-04-25T07:40:27.393Z,72.20
2023-04-25T07:42:59.716Z,71.30
2023-04-25T07:45:34.302Z,73.00
2023-04-25T07:48:02.517Z,75.60
2023-04-25T07:50:31.735Z,77.90
2023-04-25T07:52:58.737Z,75.30
2023-04-25T07:55:31.851Z,68.50
2023-04-25T07:58:04.640Z,63.00
2023-04-25T08:00:32.778Z,59.20
2023-04-25T08:03:19.826Z,53.10
2023-04-25T08:05:47.014Z,51.40
2023-04-25T08:08:14.788Z,48.90
2023-04-25T08:10:43.288Z,47.50
2023-04-25T08:13:10.192Z,46.20
2023-04-25T08:15:37.868Z,44.90
2023-04-25T08:18:04.882Z,43.20
2023-04-25T08:20:32.622Z,43.90
2023-04-25T08:23:01.744Z,43.90
2023-04-25T08:25:47.423Z,42.90
2023-04-25T08:28:17.354Z,41.00
2023-04-25T08:30:45.424Z,40.10
2023-04-25T08:33:14.592Z,39.40
2023-04-25T08:35:54.319Z,41.10
2023-04-25T08:38:21.352Z,42.00
2023-04-25T08:40:51.240Z,40.30
2023-04-25T08:43:19.853Z,37.80
2023-04-25T08:45:47.705Z,37.70
2023-04-25T08:48:25.575Z,38.20
2023-04-25T08:50:54.661Z,37.80
2023-04-25T08:53:23.129Z,37.00
2023-04-25T08:55:50.956Z,36.20
2023-04-25T08:58:19.236Z,37.20
2023-04-25T09:00:47.157Z,36.90
2023-04-25T09:03:14.490Z,37.00
2023-04-25T09:05:43.942Z,36.00
2023-04-25T09:08:11.230Z,34.90
2023-04-25T09:10:38.944Z,35.70
2023-04-25T09:13:09.721Z,36.40
2023-04-25T09:15:57.523Z,36.50
2023-04-25T09:18:48.362Z,37.30
2023-04-25T09:21:16.689Z,38.50
2023-04-25T09:23:47.442Z,39.80
2023-04-25T09:26:16.522Z,40.50
2023-04-25T09:28:44.876Z,41.90
2023-04-25T09:31:12.631Z,42.80
2023-04-25T09:33:46.964Z,43.60
2023-04-25T09:36:14.365Z,44.00
2023-04-25T09:39:16.096Z,44.60
2023-04-25T09:41:47.726Z,45.70
2023-04-25T09:44:15.016Z,46.10
2023-04-25T09:46:43.577Z,45.40
2023-04-25T09:49:20.844Z,44.10
2023-04-25T09:52:01.338Z,42.70
2023-04-25T09:54:34.754Z,41.90
2023-04-25T09:57:15.668Z,42.50
2023-04-25T09:59:46.757Z,42.80
2023-04-25T10:02:14.899Z,43.80
2023-04-25T10:04:42.368Z,44.70
2023-04-25T10:07:17.824Z,45.70
2023-04-25T10:09:48.242Z,46.00
2023-04-25T10:12:15.772Z,46.70
2023-04-25T10:14:43.006Z,45.50
2023-04-25T10:17:11.465Z,45.40
2023-04-25T10:19:38.476Z,46.50
2023-04-25T10:22:23.789Z,47.10
2023-04-25T10:24:51.922Z,46.80
2023-04-25T10:27:19.313Z,44.00
2023-04-25T10:29:46.146Z,41.70
2023-04-25T10:32:13.162Z,40.80
2023-04-25T10:34:49.584Z,39.20
2023-04-25T10:37:16.401Z,38.40
2023-04-25T10:39:43.969Z,37.70
2023-04-25T10:42:10.920Z,39.30
2023-04-25T10:44:38.363Z,39.90
2023-04-25T10:47:07.576Z,39.40
2023-04-25T10:49:35.540Z,39.50
2023-04-25T10:52:26.977Z,40.30
2023-04-25T10:54:55.197Z,41.80
2023-04-25T10:57:30.498Z,42.90
2023-04-25T11:00:01.200Z,45.10
2023-04-25T11:02:31.845Z,46.80
2023-04-25T11:04:58.824Z,47.70
2023-04-25T11:07:38.496Z,47.90
2023-04-25T11:10:05.699Z,48.60
2023-04-25T11:12:33.102Z,48.30
2023-04-25T11:15:07.003Z,49.10
2023-04-25T11:17:34.356Z,49.70
2023-04-25T11:20:01.375Z,50.80
2023-04-25T11:22:28.892Z,51.70
2023-04-25T11:24:55.743Z,52.70
2023-04-25T11:27:22.649Z,53.30
2023-04-25T11:29:49.525Z,54.40
2023-04-25T11:32:18.081Z,55.00
2023-04-25T11:34:47.564Z,55.70
2023-04-25T11:37:16.219Z,56.90
2023-04-25T11:39:49.421Z,57.60
2023-04-25T11:42:16.331Z,58.10
2023-04-25T11:44:43.286Z,58.20
2023-04-25T11:47:10.317Z,58.70
2023-04-25T11:49:37.348Z,59.80
2023-04-25T11:52:07.159Z,59.80
2023-04-25T11:54:37.282Z,60.50
2023-04-25T11:57:04.992Z,61.20
2023-04-25T11:59:32.023Z,61.40
2023-04-25T12:01:58.976Z,61.60
2023-04-25T12:04:26.457Z,62.30
2023-04-25T12:06:55.970Z,62.80
2023-04-25T12:09:31.465Z,63.90
2023-04-25T12:12:00.411Z,63.70
2023-04-25T12:14:29.909Z,64.30
2023-04-25T12:16:58.898Z,64.90
2023-04-25T12:19:27.024Z,65.80
2023-04-25T12:21:58.513Z,67.00
2023-04-25T12:24:28.434Z,67.70
2023-04-25T12:27:06.099Z,68.90
2023-04-25T12:29:48.691Z,70.40
2023-04-25T12:32:18.007Z,71.30
2023-04-25T12:34:45.924Z,71.60
2023-04-25T12:37:13.159Z,72.90
2023-04-25T12:39:46.578Z,74.60
2023-04-25T12:42:16.388Z,75.70
2023-04-25T12:44:43.343Z,76.80
2023-04-25T12:47:10.647Z,77.90
2023-04-25T12:49:37.895Z,78.60
2023-04-25T12:52:04.912Z,79.30
2023-04-25T12:54:32.195Z,79.70
2023-04-25T12:56:59.433Z,80.40
2023-04-25T12:59:26.386Z,81.00
2023-04-25T13:01:53.400Z,81.10
2023-04-25T13:04:22.170Z,81.30
2023-04-25T13:06:49.485Z,81.10
2023-04-25T13:09:16.678Z,80.70
2023-04-25T13:11:43.756Z,80.40
2023-04-25T13:14:11.279Z,80.00
2023-04-25T13:16:38.470Z,79.90
2023-04-25T13:19:06.579Z,79.50
2023-04-25T13:21:33.596Z,79.60
2023-04-25T13:24:00.815Z,80.40
2023-04-25T13:26:27.898Z,81.10
2023-04-25T13:28:54.851Z,81.90
2023-04-25T13:31:22.039Z,82.30
2023-04-25T13:33:49.293Z,82.80
2023-04-25T13:36:16.413Z,82.90
2023-04-25T13:38:45.131Z,82.90
2023-04-25T13:41:16.700Z,82.70
2023-04-25T13:43:43.697Z,82.60
2023-04-25T13:46:24.744Z,82.70
2023-04-25T13:49:06.273Z,82.00
2023-04-25T13:51:38.917Z,81.50
2023-04-25T13:54:05.991Z,82.30
2023-04-25T13:56:32.982Z,83.00
2023-04-25T13:58:59.926Z,83.60
2023-04-25T14:01:28.465Z,83.70
2023-04-25T14:03:55.569Z,83.70
2023-04-25T14:06:24.895Z,84.00
2023-04-25T14:08:51.946Z,83.80
2023-04-25T14:11:21.758Z,83.30
2023-04-25T14:13:50.303Z,83.50
2023-04-25T14:16:17.931Z,83.90
2023-04-25T14:18:45.138Z,84.30
2023-04-25T14:21:12.072Z,86.00
2023-04-25T14:23:39.092Z,86.90
2023-04-25T14:26:06.289Z,87.10
2023-04-25T14:28:33.386Z,87.20
2023-04-25T14:31:01.357Z,87.20
2023-04-25T14:33:28.331Z,88.20
2023-04-25T14:35:55.606Z,89.40
2023-04-25T14:38:24.297Z,90.10
2023-04-25T14:40:52.406Z,90.40
2023-04-25T14:43:19.312Z,90.30
2023-04-25T14:45:46.329Z,89.40
2023-04-25T14:48:13.572Z,88.80
2023-04-25T14:50:40.960Z,89.10
2023-04-25T14:53:07.954Z,88.20
2023-04-25T14:55:34.840Z,86.00
2023-04-25T14:58:02.113Z,84.20
2023-04-25T15:00:29.235Z,83.40
2023-04-25T15:02:57.074Z,82.80
2023-04-25T15:05:24.483Z,82.50
2023-04-25T15:07:51.603Z,81.70
2023-04-25T15:10:19.666Z,78.70
2023-04-25T15:12:49.694Z,77.70
2023-04-25T15:15:25.984Z,77.50
2023-04-25T15:17:59.258Z,77.20
2023-04-25T15:20:27.983Z,76.50
2023-04-25T15:22:55.661Z,76.40
2023-04-25T15:25:22.794Z,75.20
2023-04-25T15:27:50.546Z,73.40
2023-04-25T15:30:18.763Z,73.50
2023-04-25T15:32:47.205Z,73.00
2023-04-25T15:35:18.248Z,74.00
2023-04-25T15:37:46.305Z,74.30
2023-04-25T15:40:17.556Z,73.90
2023-04-25T15:42:51.592Z,75.20
2023-04-25T15:45:20.647Z,74.90
2023-04-25T15:47:48.320Z,75.00
2023-04-25T15:50:16.315Z,74.90
2023-04-25T15:52:43.794Z,75.00
2023-04-25T15:55:12.953Z,75.40
2023-04-25T15:57:42.144Z,75.90
2023-04-25T16:00:19.438Z,75.80
2023-04-25T16:02:50.364Z,75.40
2023-04-25T16:05:18.669Z,75.10
2023-04-25T16:07:48.733Z,74.40
2023-04-25T16:10:20.057Z,75.00
2023-04-25T16:12:50.612Z,76.00
2023-04-25T16:15:18.639Z,76.50
2023-04-25T16:17:45.825Z,77.60
2023-04-25T16:20:13.915Z,77.90
2023-04-25T16:22:42.632Z,78.50
2023-04-25T16:25:13.226Z,79.00
2023-04-25T16:27:43.041Z,79.70
2023-04-25T16:30:11.462Z,80.10
2023-04-25T16:32:39.966Z,80.80
2023-04-25T16:35:08.396Z,81.50
2023-04-25T16:37:35.691Z,81.90
2023-04-25T16:40:03.247Z,82.10
2023-04-25T16:42:30.386Z,82.30
2023-04-25T16:44:57.299Z,82.30
2023-04-25T16:47:25.339Z,82.80
2023-04-25T16:49:53.617Z,83.10
2023-04-25T16:52:23.623Z,83.40
2023-04-25T16:54:50.711Z,83.90
2023-04-25T16:57:17.970Z,84.40
2023-04-25T16:59:45.069Z,84.30
2023-04-25T17:02:13.384Z,84.70
2023-04-25T17:04:41.060Z,85.40
2023-04-25T17:07:08.988Z,85.90
2023-04-25T17:09:36.407Z,86.30
2023-04-25T17:12:04.641Z,86.80
2023-04-25T17:14:33.273Z,87.30
2023-04-25T17:17:00.626Z,87.50
2023-04-25T17:19:28.557Z,87.90
2023-04-25T17:22:00.729Z,88.40
2023-04-25T17:24:27.671Z,89.20
2023-04-25T17:26:56.498Z,90.00
2023-04-25T17:29:27.853Z,90.30
2023-04-25T17:31:57.008Z,90.60
2023-04-25T17:34:24.039Z,90.90
2023-04-25T17:36:52.153Z,91.10
2023-04-25T17:39:20.079Z,91.50
2023-04-25T17:41:47.153Z,91.70
2023-04-25T17:44:14.482Z,91.90
2023-04-25T17:46:41.985Z,92.30
2023-04-25T17:49:12.490Z,92.60
2023-04-25T17:51:39.964Z,92.80
2023-04-25T17:54:07.008Z,93.10
2023-04-25T17:56:37.887Z,93.40
2023-04-25T17:59:05.112Z,93.70
2023-04-25T18:01:32.484Z,93.90
2023-04-25T18:04:05.474Z,94.40
2023-04-25T18:06:33.197Z,94.80
2023-04-25T18:09:02.113Z,95.10
2023-04-25T18:11:29.871Z,95.90
2023-04-25T18:13:56.986Z,96.70
2023-04-25T18:16:24.040Z,97.50
2023-04-25T18:18:53.737Z,98.10
2023-04-25T18:21:22.231Z,98.50
2023-04-25T18:23:49.300Z,99.00
2023-04-25T18:26:16.385Z,99.30
2023-04-25T18:28:43.988Z,99.80
2023-04-25T18:31:11.747Z,99.90
2023-04-25T18:33:40.102Z,99.90
2023-04-25T18:36:07.460Z,99.90
2023-04-25T18:38:36.016Z,99.90
2023-04-25T18:41:26.952Z,99.90
2023-04-25T18:43:55.253Z,99.90
2023-04-25T18:46:25.512Z,99.90
2023-04-25T18:48:54.133Z,99.90
2023-04-25T18:51:31.902Z,99.90
2023-04-25T18:53:59.476Z,99.90
2023-04-25T18:56:27.548Z,99.90
2023-04-25T18:58:55.852Z,99.90
2023-04-25T19:01:25.302Z,99.90
2023-04-25T19:03:57.644Z,99.90
2023-04-25T19:06:28.067Z,99.90
2023-04-25T19:08:57.770Z,99.90
2023-04-25T19:11:27.379Z,99.90
2023-04-25T19:13:59.233Z,99.90
2023-04-25T19:16:30.497Z,99.90
2023-04-25T19:18:57.673Z,99.90
2023-04-25T19:21:24.693Z,99.90
2023-04-25T19:23:54.332Z,99.90
2023-04-25T19:26:22.417Z,99.90
2023-04-25T19:29:04.998Z,99.90
2023-04-25T19:31:33.437Z,99.90
2023-04-25T19:34:00.611Z,99.90
2023-04-25T19:36:28.814Z,99.90
2023-04-25T19:39:02.035Z,99.90
2023-04-25T19:41:30.118Z,99.90
2023-04-25T19:43:57.143Z,99.90
2023-04-25T19:46:24.702Z,99.90
2023-04-25T19:48:52.030Z,99.90
2023-04-25T19:51:19.068Z,99.90
2023-04-25T19:53:45.991Z,99.90
2023-04-25T19:56:13.188Z,99.90
2023-04-25T19:58:40.341Z,99.90
2023-04-25T20:01:07.723Z,99.90
2023-04-25T20:03:34.880Z,99.90
2023-04-25T20:06:01.956Z,99.90
2023-04-25T20:08:28.931Z,99.90
2023-04-25T20:10:55.881Z,99.90
2023-04-25T20:13:22.810Z,99.90
2023-04-25T20:15:49.950Z,99.90
2023-04-25T20:18:16.986Z,99.90
2023-04-25T20:20:43.956Z,99.90
2023-04-25T20:23:11.903Z,99.90
2023-04-25T20:25:39.176Z,99.90
2023-04-25T20:28:06.261Z,99.90
2023-04-25T20:30:33.186Z,99.90
2023-04-25T20:33:01.568Z,99.90
2023-04-25T20:35:28.598Z,99.90
2023-04-25T20:37:55.629Z,99.90
2023-04-25T20:40:22.644Z,99.90
2023-04-25T20:42:49.753Z,99.90
2023-04-25T20:45:16.759Z,99.90
2023-04-25T20:47:44.550Z,99.90
2023-04-25T20:50:12.161Z,99.90
2023-04-25T20:52:39.126Z,99.90
2023-04-25T20:55:07.510Z,99.90
2023-04-25T20:57:34.455Z,99.90
2023-04-25T21:00:01.424Z,99.90
2023-04-25T21:02:29.992Z,99.90
2023-04-25T21:04:56.974Z,99.90
2023-04-25T21:07:23.952Z,99.90
2023-04-25T21:09:51.785Z,99.90
2023-04-25T21:12:18.739Z,99.90
2023-04-25T21:14:45.697Z,99.90
2023-04-25T21:17:12.668Z,99.90
2023-04-25T21:19:39.632Z,99.90
2023-04-25T21:22:07.219Z,99.90
2023-04-25T21:24:34.545Z,99.90
2023-04-25T21:27:01.518Z,99.90
2023-04-25T21:29:28.592Z,99.90
2023-04-25T21:31:56.842Z,99.90
2023-04-25T21:34:23.907Z,99.90
2023-04-25T21:36:50.853Z,99.90
2023-04-25T21:39:17.800Z,99.90
2023-04-25T21:41:44.755Z,99.90
2023-04-25T21:44:12.712Z,99.90
2023-04-25T21:46:39.809Z,99.90
2023-04-25T21:49:07.202Z,99.90
2023-04-25T21:51:34.288Z,99.90
2023-04-25T21:54:05.281Z,99.90
2023-04-25T21:56:33.103Z,99.90
2023-04-25T21:59:00.114Z,99.90
2023-04-25T22:01:27.895Z,99.90
2023-04-25T22:03:55.308Z,99.90
2023-04-25T22:06:22.449Z,99.90
2023-04-25T22:08:50.570Z,99.90
2023-04-25T22:11:17.636Z,99.90
2023-04-25T22:13:45.510Z,99.90
2023-04-25T22:16:12.646Z,99.90
2023-04-25T22:18:40.482Z,99.90
2023-04-25T22:21:08.631Z,99.90
2023-04-25T22:23:37.233Z,99.90
2023-04-25T22:26:05.315Z,99.90
2023-04-25T22:28:33.842Z,99.90
2023-04-25T22:31:00.984Z,99.90
2023-04-25T22:33:28.126Z,99.90
2023-04-25T22:35:55.094Z,99.90
2023-04-25T22:38:22.107Z,99.90
2023-04-25T22:40:49.080Z,99.90
2023-04-25T22:43:16.748Z,99.90
2023-04-25T22:45:43.752Z,99.90
2023-04-25T22:48:10.962Z,99.90
2023-04-25T22:50:40.435Z,99.90
2023-04-25T22:53:10.204Z,99.90
2023-04-25T22:55:38.159Z,99.90
2023-04-25T22:58:08.260Z,99.90
2023-04-25T23:00:37.745Z,99.90
2023-04-25T23:03:05.784Z,99.90
2023-04-25T23:05:33.243Z,99.90
2023-04-25T23:08:00.324Z,99.90
2023-04-25T23:10:28.516Z,99.90
2023-04-25T23:12:58.166Z,99.90
2023-04-25T23:15:27.616Z,99.90
2023-04-25T23:17:54.855Z,99.90
2023-04-25T23:20:21.826Z,99.90
2023-04-25T23:22:49.649Z,99.90
2023-04-25T23:25:17.411Z,99.90
2023-04-25T23:27:45.028Z,99.90
2023-04-25T23:30:12.781Z,99.90
2023-04-25T23:32:40.214Z,99.90
2023-04-25T23:35:07.729Z,99.90
2023-04-25T23:37:35.944Z,99.90
2023-04-25T23:40:13.579Z,99.90
2023-04-25T23:42:41.689Z,99.90
2023-04-25T23:45:09.468Z,99.90
2023-04-25T23:47:36.776Z,99.90
2023-04-25T23:50:04.318Z,99.90
2023-04-25T23:52:32.409Z,99.90
2023-04-25T23:54:59.416Z,99.90
2023-04-25T23:57:26.897Z,99.90
2023-04-25T23:59:54.084Z,99.90
